sensor_id;sensor_type;location;lat;lon;timestamp;temperature;humidity
20594;DHT22;10455;48.732;10.266;2022-09-01T00:00:50;14.40;99.90
20594;DHT22;10455;48.732;10.266;2022-09-01T00:05:53;14.30;99.90
20594;DHT22;10455;48.732;10.266;2022-09-01T00:10:56;14.30;99.90
20594;DHT22;10455;48.732;10.266;2022-09-01T00:15:59;14.30;99.90
20594;DHT22;10455;48.732;10.266;2022-09-01T00:21:05;14.20;99.90
20594;DHT22;10455;48.732;10.266;2022-09-01T00:26:07;14.00;99.90
20594;DHT22;10455;48.732;10.266;2022-09-01T00:31:10;14.30;99.90
20594;DHT22;10455;48.732;10.266;2022-09-01T00:36:16;14.40;99.90
20594;DHT22;10455;48.732;10.266;2022-09-01T00:41:21;14.50;99.90
20594;DHT22;10455;48.732;10.266;2022-09-01T00:46:28;14.50;99.90
20594;DHT22;10455;48.732;10.266;2022-09-01T00:51:34;14.60;99.90
20594;DHT22;10455;48.732;10.266;2022-09-01T00:56:39;14.80;99.90
20594;DHT22;10455;48.732;10.266;2022-09-01T01:01:42;14.60;99.90
20594;DHT22;10455;48.732;10.266;2022-09-01T01:06:47;14.60;99.90
20594;DHT22;10455;48.732;10.266;2022-09-01T01:11:58;14.60;99.90
20594;DHT22;10455;48.732;10.266;2022-09-01T01:17:01;14.40;99.90
20594;DHT22;10455;48.732;10.266;2022-09-01T01:22:09;14.50;99.90
20594;DHT22;10455;48.732;10.266;2022-09-01T01:27:35;14.50;99.90
20594;DHT22;10455;48.732;10.266;2022-09-01T01:32:38;14.30;99.90
20594;DHT22;10455;48.732;10.266;2022-09-01T01:37:45;14.30;99.90
20594;DHT22;10455;48.732;10.266;2022-09-01T01:42:51;14.30;99.90
20594;DHT22;10455;48.732;10.266;2022-09-01T01:47:54;14.30;99.90
20594;DHT22;10455;48.732;10.266;2022-09-01T01:52:56;14.40;99.90
20594;DHT22;10455;48.732;10.266;2022-09-01T01:58:01;14.40;99.90
20594;DHT22;10455;48.732;10.266;2022-09-01T02:03:04;14.50;99.90
20594;DHT22;10455;48.732;10.266;2022-09-01T02:08:09;14.70;99.90
20594;DHT22;10455;48.732;10.266;2022-09-01T02:13:15;14.80;99.90
20594;DHT22;10455;48.732;10.266;2022-09-01T02:18:19;14.80;99.90
20594;DHT22;10455;48.732;10.266;2022-09-01T02:23:23;14.90;99.90
20594;DHT22;10455;48.732;10.266;2022-09-01T02:28:28;15.00;99.90
20594;DHT22;10455;48.732;10.266;2022-09-01T02:33:31;14.90;99.90
20594;DHT22;10455;48.732;10.266;2022-09-01T02:38:34;15.00;99.90
20594;DHT22;10455;48.732;10.266;2022-09-01T02:43:39;15.00;99.90
20594;DHT22;10455;48.732;10.266;2022-09-01T02:48:43;15.00;99.90
20594;DHT22;10455;48.732;10.266;2022-09-01T02:53:51;15.10;99.90
20594;DHT22;10455;48.732;10.266;2022-09-01T02:58:56;15.00;99.90
20594;DHT22;10455;48.732;10.266;2022-09-01T03:04:03;14.80;99.90
20594;DHT22;10455;48.732;10.266;2022-09-01T03:09:09;15.00;99.90
20594;DHT22;10455;48.732;10.266;2022-09-01T03:14:13;15.10;99.90
20594;DHT22;10455;48.732;10.266;2022-09-01T03:19:15;15.30;99.90
20594;DHT22;10455;48.732;10.266;2022-09-01T03:24:18;15.30;99.90
20594;DHT22;10455;48.732;10.266;2022-09-01T03:29:23;15.20;99.90
20594;DHT22;10455;48.732;10.266;2022-09-01T03:34:25;14.80;99.90
20594;DHT22;10455;48.732;10.266;2022-09-01T03:39:28;14.70;99.90
20594;DHT22;10455;48.732;10.266;2022-09-01T03:44:32;14.60;99.90
20594;DHT22;10455;48.732;10.266;2022-09-01T03:49:40;14.60;99.90
20594;DHT22;10455;48.732;10.266;2022-09-01T03:54:43;14.90;99.90
20594;DHT22;10455;48.732;10.266;2022-09-01T03:59:47;14.90;99.90
20594;DHT22;10455;48.732;10.266;2022-09-01T04:04:50;14.80;99.90
20594;DHT22;10455;48.732;10.266;2022-09-01T04:09:53;14.90;99.90
20594;DHT22;10455;48.732;10.266;2022-09-01T04:14:57;14.90;99.90
20594;DHT22;10455;48.732;10.266;2022-09-01T04:20:01;14.90;99.90
20594;DHT22;10455;48.732;10.266;2022-09-01T04:25:08;14.90;99.90
20594;DHT22;10455;48.732;10.266;2022-09-01T04:30:12;14.70;99.90
20594;DHT22;10455;48.732;10.266;2022-09-01T04:35:14;14.70;99.90
20594;DHT22;10455;48.732;10.266;2022-09-01T04:40:16;14.80;99.90
20594;DHT22;10455;48.732;10.266;2022-09-01T04:45:24;15.10;99.90
20594;DHT22;10455;48.732;10.266;2022-09-01T04:50:27;15.00;99.90
20594;DHT22;10455;48.732;10.266;2022-09-01T04:55:30;15.20;99.90
20594;DHT22;10455;48.732;10.266;2022-09-01T05:00:34;15.10;99.90
20594;DHT22;10455;48.732;10.266;2022-09-01T05:05:38;15.10;99.90
20594;DHT22;10455;48.732;10.266;2022-09-01T05:10:44;15.10;99.90
20594;DHT22;10455;48.732;10.266;2022-09-01T05:15:59;15.30;99.90
20594;DHT22;10455;48.732;10.266;2022-09-01T05:21:06;15.30;99.90
20594;DHT22;10455;48.732;10.266;2022-09-01T05:26:12;15.10;99.90
20594;DHT22;10455;48.732;10.266;2022-09-01T05:31:18;15.30;99.90
20594;DHT22;10455;48.732;10.266;2022-09-01T05:36:22;15.30;99.90
20594;DHT22;10455;48.732;10.266;2022-09-01T05:41:24;15.20;99.90
20594;DHT22;10455;48.732;10.266;2022-09-01T05:46:29;15.10;99.90
20594;DHT22;10455;48.732;10.266;2022-09-01T05:51:32;15.20;99.90
20594;DHT22;10455;48.732;10.266;2022-09-01T05:56:35;15.70;99.90
20594;DHT22;10455;48.732;10.266;2022-09-01T06:01:42;16.10;99.90
20594;DHT22;10455;48.732;10.266;2022-09-01T06:06:48;16.30;99.90
20594;DHT22;10455;48.732;10.266;2022-09-01T06:11:50;16.10;99.90
20594;DHT22;10455;48.732;10.266;2022-09-01T06:16:56;16.10;99.90
20594;DHT22;10455;48.732;10.266;2022-09-01T06:21:58;16.10;99.90
20594;DHT22;10455;48.732;10.266;2022-09-01T06:27:01;17.10;99.90
20594;DHT22;10455;48.732;10.266;2022-09-01T06:32:07;17.50;99.90
20594;DHT22;10455;48.732;10.266;2022-09-01T06:37:12;17.70;99.90
20594;DHT22;10455;48.732;10.266;2022-09-01T06:42:15;16.90;99.90
20594;DHT22;10455;48.732;10.266;2022-09-01T06:47:18;17.10;99.90
20594;DHT22;10455;48.732;10.266;2022-09-01T06:52:21;17.20;99.90
20594;DHT22;10455;48.732;10.266;2022-09-01T06:57:23;16.80;99.90
20594;DHT22;10455;48.732;10.266;2022-09-01T07:02:28;16.50;99.90
20594;DHT22;10455;48.732;10.266;2022-09-01T07:07:33;16.60;99.90
20594;DHT22;10455;48.732;10.266;2022-09-01T07:12:37;16.40;99.90
20594;DHT22;10455;48.732;10.266;2022-09-01T07:17:44;16.10;99.90
20594;DHT22;10455;48.732;10.266;2022-09-01T07:22:48;16.20;99.90
20594;DHT22;10455;48.732;10.266;2022-09-01T07:27:51;16.60;99.90
20594;DHT22;10455;48.732;10.266;2022-09-01T07:32:55;16.20;99.90
20594;DHT22;10455;48.732;10.266;2022-09-01T07:37:58;16.50;99.90
20594;DHT22;10455;48.732;10.266;2022-09-01T07:43:00;17.50;99.90
20594;DHT22;10455;48.732;10.266;2022-09-01T07:48:06;17.70;99.90
20594;DHT22;10455;48.732;10.266;2022-09-01T07:53:09;17.40;99.90
20594;DHT22;10455;48.732;10.266;2022-09-01T07:58:12;17.40;99.90
20594;DHT22;10455;48.732;10.266;2022-09-01T08:03:19;17.00;99.90
20594;DHT22;10455;48.732;10.266;2022-09-01T08:08:21;17.30;99.90
20594;DHT22;10455;48.732;10.266;2022-09-01T08:13:24;20.60;99.90
20594;DHT22;10455;48.732;10.266;2022-09-01T08:18:27;19.20;99.90
20594;DHT22;10455;48.732;10.266;2022-09-01T08:23:30;18.20;99.90
20594;DHT22;10455;48.732;10.266;2022-09-01T08:28:32;17.60;99.90
20594;DHT22;10455;48.732;10.266;2022-09-01T08:33:36;17.90;99.90
20594;DHT22;10455;48.732;10.266;2022-09-01T08:38:38;17.30;99.90
20594;DHT22;10455;48.732;10.266;2022-09-01T08:43:49;17.00;99.90
20594;DHT22;10455;48.732;10.266;2022-09-01T08:48:57;16.70;99.90
20594;DHT22;10455;48.732;10.266;2022-09-01T08:54:03;16.70;99.90
20594;DHT22;10455;48.732;10.266;2022-09-01T08:59:08;17.60;99.90
20594;DHT22;10455;48.732;10.266;2022-09-01T09:04:20;17.70;99.90
20594;DHT22;10455;48.732;10.266;2022-09-01T09:09:32;17.30;99.90
20594;DHT22;10455;48.732;10.266;2022-09-01T09:14:49;17.50;99.90
20594;DHT22;10455;48.732;10.266;2022-09-01T09:19:57;17.00;99.90
20594;DHT22;10455;48.732;10.266;2022-09-01T09:25:05;17.00;99.90
20594;DHT22;10455;48.732;10.266;2022-09-01T09:30:11;17.60;99.90
20594;DHT22;10455;48.732;10.266;2022-09-01T09:35:22;18.10;99.90
20594;DHT22;10455;48.732;10.266;2022-09-01T09:40:25;18.30;99.90
20594;DHT22;10455;48.732;10.266;2022-09-01T09:45:30;18.20;99.90
20594;DHT22;10455;48.732;10.266;2022-09-01T09:50:36;18.40;99.90
20594;DHT22;10455;48.732;10.266;2022-09-01T09:55:59;18.50;99.90
20594;DHT22;10455;48.732;10.266;2022-09-01T10:01:10;17.70;99.90
20594;DHT22;10455;48.732;10.266;2022-09-01T10:06:31;17.30;99.90
20594;DHT22;10455;48.732;10.266;2022-09-01T10:11:37;17.40;99.90
20594;DHT22;10455;48.732;10.266;2022-09-01T10:16:41;18.20;99.90
20594;DHT22;10455;48.732;10.266;2022-09-01T10:21:45;18.80;99.90
20594;DHT22;10455;48.732;10.266;2022-09-01T10:26:51;19.00;99.90
20594;DHT22;10455;48.732;10.266;2022-09-01T10:31:55;20.00;99.90
20594;DHT22;10455;48.732;10.266;2022-09-01T10:36:59;20.20;99.90
20594;DHT22;10455;48.732;10.266;2022-09-01T10:42:02;19.10;99.90
20594;DHT22;10455;48.732;10.266;2022-09-01T10:47:10;19.10;99.90
20594;DHT22;10455;48.732;10.266;2022-09-01T10:52:54;19.90;99.90
20594;DHT22;10455;48.732;10.266;2022-09-01T10:58:07;19.10;99.90
20594;DHT22;10455;48.732;10.266;2022-09-01T11:09:03;20.20;99.90
20594;DHT22;10455;48.732;10.266;2022-09-01T11:14:16;20.60;99.90
20594;DHT22;10455;48.732;10.266;2022-09-01T11:19:36;20.90;99.90
20594;DHT22;10455;48.732;10.266;2022-09-01T11:24:50;22.00;99.90
20594;DHT22;10455;48.732;10.266;2022-09-01T11:29:54;22.10;99.90
20594;DHT22;10455;48.732;10.266;2022-09-01T11:34:58;22.70;99.90
20594;DHT22;10455;48.732;10.266;2022-09-01T11:40:04;21.10;99.90
20594;DHT22;10455;48.732;10.266;2022-09-01T11:45:14;20.70;99.90
20594;DHT22;10455;48.732;10.266;2022-09-01T11:50:19;20.90;99.90
20594;DHT22;10455;48.732;10.266;2022-09-01T11:55:32;21.00;99.90
20594;DHT22;10455;48.732;10.266;2022-09-01T12:00:37;21.00;99.90
20594;DHT22;10455;48.732;10.266;2022-09-01T12:05:40;20.90;99.90
20594;DHT22;10455;48.732;10.266;2022-09-01T12:10:44;20.70;99.90
20594;DHT22;10455;48.732;10.266;2022-09-01T12:15:52;20.10;99.90
20594;DHT22;10455;48.732;10.266;2022-09-01T12:20:56;21.10;99.90
20594;DHT22;10455;48.732;10.266;2022-09-01T12:26:02;21.50;99.90
20594;DHT22;10455;48.732;10.266;2022-09-01T12:31:07;21.70;99.90
20594;DHT22;10455;48.732;10.266;2022-09-01T12:36:14;22.80;99.90
20594;DHT22;10455;48.732;10.266;2022-09-01T12:41:33;21.30;99.90
20594;DHT22;10455;48.732;10.266;2022-09-01T12:46:41;21.90;99.90
20594;DHT22;10455;48.732;10.266;2022-09-01T12:51:43;23.30;99.90
20594;DHT22;10455;48.732;10.266;2022-09-01T12:56:49;22.40;99.90
20594;DHT22;10455;48.732;10.266;2022-09-01T13:01:52;22.30;99.90
20594;DHT22;10455;48.732;10.266;2022-09-01T13:06:59;21.90;99.90
20594;DHT22;10455;48.732;10.266;2022-09-01T13:12:27;21.70;99.90
20594;DHT22;10455;48.732;10.266;2022-09-01T13:17:29;21.40;99.90
20594;DHT22;10455;48.732;10.266;2022-09-01T13:22:31;23.00;99.90
20594;DHT22;10455;48.732;10.266;2022-09-01T13:27:35;23.30;99.90
20594;DHT22;10455;48.732;10.266;2022-09-01T13:32:38;22.80;99.90
20594;DHT22;10455;48.732;10.266;2022-09-01T13:37:40;23.00;99.90
20594;DHT22;10455;48.732;10.266;2022-09-01T13:42:45;23.60;99.90
20594;DHT22;10455;48.732;10.266;2022-09-01T13:47:48;25.30;99.90
20594;DHT22;10455;48.732;10.266;2022-09-01T13:52:54;24.50;99.90
20594;DHT22;10455;48.732;10.266;2022-09-01T13:57:58;24.30;99.90
20594;DHT22;10455;48.732;10.266;2022-09-01T14:03:03;24.10;99.90
20594;DHT22;10455;48.732;10.266;2022-09-01T14:08:07;23.00;99.90
20594;DHT22;10455;48.732;10.266;2022-09-01T14:13:12;23.10;99.90
20594;DHT22;10455;48.732;10.266;2022-09-01T14:18:15;24.60;99.90
20594;DHT22;10455;48.732;10.266;2022-09-01T14:23:19;22.30;99.90
20594;DHT22;10455;48.732;10.266;2022-09-01T14:28:23;22.60;99.90
20594;DHT22;10455;48.732;10.266;2022-09-01T14:33:25;22.20;99.90
20594;DHT22;10455;48.732;10.266;2022-09-01T14:38:27;22.60;99.90
20594;DHT22;10455;48.732;10.266;2022-09-01T14:43:31;21.60;99.90
20594;DHT22;10455;48.732;10.266;2022-09-01T14:48:33;23.60;99.90
20594;DHT22;10455;48.732;10.266;2022-09-01T14:53:35;25.30;99.90
20594;DHT22;10455;48.732;10.266;2022-09-01T14:58:39;27.30;97.40
20594;DHT22;10455;48.732;10.266;2022-09-01T15:03:44;28.60;95.40
20594;DHT22;10455;48.732;10.266;2022-09-01T15:08:48;25.10;98.10
20594;DHT22;10455;48.732;10.266;2022-09-01T15:13:51;24.10;99.90
20594;DHT22;10455;48.732;10.266;2022-09-01T15:18:55;22.20;99.90
20594;DHT22;10455;48.732;10.266;2022-09-01T15:23:57;21.90;99.90
20594;DHT22;10455;48.732;10.266;2022-09-01T15:29:02;21.40;99.90
20594;DHT22;10455;48.732;10.266;2022-09-01T15:34:04;22.60;99.90
20594;DHT22;10455;48.732;10.266;2022-09-01T15:39:07;22.90;99.90
20594;DHT22;10455;48.732;10.266;2022-09-01T15:44:11;22.20;99.90
20594;DHT22;10455;48.732;10.266;2022-09-01T15:49:13;21.40;99.90
20594;DHT22;10455;48.732;10.266;2022-09-01T15:54:19;21.30;99.90
20594;DHT22;10455;48.732;10.266;2022-09-01T15:59:22;21.70;99.90
20594;DHT22;10455;48.732;10.266;2022-09-01T16:04:24;23.00;99.90
20594;DHT22;10455;48.732;10.266;2022-09-01T16:09:27;21.60;99.90
20594;DHT22;10455;48.732;10.266;2022-09-01T16:14:30;21.00;99.90
20594;DHT22;10455;48.732;10.266;2022-09-01T16:19:39;20.30;99.90
20594;DHT22;10455;48.732;10.266;2022-09-01T16:24:44;20.40;99.90
20594;DHT22;10455;48.732;10.266;2022-09-01T16:29:50;20.50;99.90
20594;DHT22;10455;48.732;10.266;2022-09-01T16:34:54;19.90;99.90
20594;DHT22;10455;48.732;10.266;2022-09-01T16:40:02;19.40;99.90
20594;DHT22;10455;48.732;10.266;2022-09-01T16:45:10;19.60;99.90
20594;DHT22;10455;48.732;10.266;2022-09-01T16:50:19;19.50;99.90
20594;DHT22;10455;48.732;10.266;2022-09-01T16:55:28;19.40;99.90
20594;DHT22;10455;48.732;10.266;2022-09-01T17:00:41;19.60;99.90
20594;DHT22;10455;48.732;10.266;2022-09-01T17:05:49;19.60;99.90
20594;DHT22;10455;48.732;10.266;2022-09-01T17:10:57;19.40;99.90
20594;DHT22;10455;48.732;10.266;2022-09-01T17:16:10;19.10;99.90
20594;DHT22;10455;48.732;10.266;2022-09-01T17:21:17;19.10;99.90
20594;DHT22;10455;48.732;10.266;2022-09-01T17:26:24;19.20;99.90
20594;DHT22;10455;48.732;10.266;2022-09-01T17:31:45;18.70;99.90
20594;DHT22;10455;48.732;10.266;2022-09-01T17:36:55;18.70;99.90
20594;DHT22;10455;48.732;10.266;2022-09-01T17:42:10;18.50;99.90
20594;DHT22;10455;48.732;10.266;2022-09-01T17:47:21;18.20;99.90
20594;DHT22;10455;48.732;10.266;2022-09-01T17:52:41;17.90;99.90
20594;DHT22;10455;48.732;10.266;2022-09-01T17:57:50;17.60;99.90
20594;DHT22;10455;48.732;10.266;2022-09-01T18:03:16;17.60;99.90
20594;DHT22;10455;48.732;10.266;2022-09-01T18:08:29;17.40;99.90
20594;DHT22;10455;48.732;10.266;2022-09-01T18:13:37;17.30;99.90
20594;DHT22;10455;48.732;10.266;2022-09-01T18:18:44;17.10;99.90
20594;DHT22;10455;48.732;10.266;2022-09-01T18:23:50;16.90;99.90
20594;DHT22;10455;48.732;10.266;2022-09-01T18:28:55;16.60;99.90
20594;DHT22;10455;48.732;10.266;2022-09-01T18:34:07;16.40;99.90
20594;DHT22;10455;48.732;10.266;2022-09-01T18:39:20;16.00;99.90
20594;DHT22;10455;48.732;10.266;2022-09-01T18:44:35;15.70;99.90
20594;DHT22;10455;48.732;10.266;2022-09-01T18:49:50;15.60;99.90
20594;DHT22;10455;48.732;10.266;2022-09-01T18:55:02;15.40;99.90
20594;DHT22;10455;48.732;10.266;2022-09-01T19:00:10;15.00;99.90
20594;DHT22;10455;48.732;10.266;2022-09-01T19:05:25;14.60;99.90
20594;DHT22;10455;48.732;10.266;2022-09-01T19:10:34;14.40;99.90
20594;DHT22;10455;48.732;10.266;2022-09-01T19:15:41;14.40;99.90
20594;DHT22;10455;48.732;10.266;2022-09-01T19:20:51;14.50;99.90
20594;DHT22;10455;48.732;10.266;2022-09-01T19:26:01;14.40;99.90
20594;DHT22;10455;48.732;10.266;2022-09-01T19:31:09;14.30;99.90
20594;DHT22;10455;48.732;10.266;2022-09-01T19:36:21;14.10;99.90
20594;DHT22;10455;48.732;10.266;2022-09-01T19:41:28;13.90;99.90
20594;DHT22;10455;48.732;10.266;2022-09-01T19:46:35;13.60;99.90
20594;DHT22;10455;48.732;10.266;2022-09-01T19:51:46;13.30;99.90
20594;DHT22;10455;48.732;10.266;2022-09-01T19:56:54;13.30;99.90
20594;DHT22;10455;48.732;10.266;2022-09-01T20:01:59;13.30;99.90
20594;DHT22;10455;48.732;10.266;2022-09-01T20:07:09;13.30;99.90
20594;DHT22;10455;48.732;10.266;2022-09-01T20:12:21;13.10;99.90
20594;DHT22;10455;48.732;10.266;2022-09-01T20:17:29;13.00;99.90
20594;DHT22;10455;48.732;10.266;2022-09-01T20:22:39;12.80;99.90
20594;DHT22;10455;48.732;10.266;2022-09-01T20:27:50;12.70;99.90
20594;DHT22;10455;48.732;10.266;2022-09-01T20:32:59;12.90;99.90
20594;DHT22;10455;48.732;10.266;2022-09-01T20:38:09;12.90;99.90
20594;DHT22;10455;48.732;10.266;2022-09-01T20:43:37;13.70;99.90
20594;DHT22;10455;48.732;10.266;2022-09-01T20:48:41;14.20;99.90
20594;DHT22;10455;48.732;10.266;2022-09-01T20:53:54;14.20;99.90
20594;DHT22;10455;48.732;10.266;2022-09-01T20:59:03;14.10;99.90
20594;DHT22;10455;48.732;10.266;2022-09-01T21:04:17;14.20;99.90
20594;DHT22;10455;48.732;10.266;2022-09-01T21:09:33;14.30;99.90
20594;DHT22;10455;48.732;10.266;2022-09-01T21:14:46;14.40;99.90
20594;DHT22;10455;48.732;10.266;2022-09-01T21:19:58;14.30;99.90
20594;DHT22;10455;48.732;10.266;2022-09-01T21:25:04;14.20;99.90
20594;DHT22;10455;48.732;10.266;2022-09-01T21:30:09;14.10;99.90
20594;DHT22;10455;48.732;10.266;2022-09-01T21:35:13;14.10;99.90
20594;DHT22;10455;48.732;10.266;2022-09-01T21:40:19;14.00;99.90
20594;DHT22;10455;48.732;10.266;2022-09-01T21:45:22;13.80;99.90
20594;DHT22;10455;48.732;10.266;2022-09-01T21:50:25;13.80;99.90
20594;DHT22;10455;48.732;10.266;2022-09-01T21:55:29;13.70;99.90
20594;DHT22;10455;48.732;10.266;2022-09-01T22:00:33;13.80;99.90
20594;DHT22;10455;48.732;10.266;2022-09-01T22:05:37;13.80;99.90
20594;DHT22;10455;48.732;10.266;2022-09-01T22:10:45;13.90;99.90
20594;DHT22;10455;48.732;10.266;2022-09-01T22:15:51;13.90;99.90
20594;DHT22;10455;48.732;10.266;2022-09-01T22:21:00;13.90;99.90
20594;DHT22;10455;48.732;10.266;2022-09-01T22:26:05;13.80;99.90
20594;DHT22;10455;48.732;10.266;2022-09-01T22:31:11;13.80;99.90
20594;DHT22;10455;48.732;10.266;2022-09-01T22:36:19;13.90;99.90
20594;DHT22;10455;48.732;10.266;2022-09-01T22:41:24;14.00;99.90
20594;DHT22;10455;48.732;10.266;2022-09-01T22:46:27;14.10;99.90
20594;DHT22;10455;48.732;10.266;2022-09-01T22:51:30;14.10;99.90
20594;DHT22;10455;48.732;10.266;2022-09-01T22:56:35;14.10;99.90
20594;DHT22;10455;48.732;10.266;2022-09-01T23:01:39;13.90;99.90
20594;DHT22;10455;48.732;10.266;2022-09-01T23:06:44;13.80;99.90
20594;DHT22;10455;48.732;10.266;2022-09-01T23:11:48;13.70;99.90
20594;DHT22;10455;48.732;10.266;2022-09-01T23:16:50;13.60;99.90
20594;DHT22;10455;48.732;10.266;2022-09-01T23:21:52;13.50;99.90
20594;DHT22;10455;48.732;10.266;2022-09-01T23:26:56;13.50;99.90
20594;DHT22;10455;48.732;10.266;2022-09-01T23:31:58;13.40;99.90
20594;DHT22;10455;48.732;10.266;2022-09-01T23:37:01;13.40;99.90
20594;DHT22;10455;48.732;10.266;2022-09-01T23:42:04;13.40;99.90
20594;DHT22;10455;48.732;10.266;2022-09-01T23:47:06;13.40;99.90
20594;DHT22;10455;48.732;10.266;2022-09-01T23:52:09;13.40;99.90
20594;DHT22;10455;48.732;10.266;2022-09-01T23:57:12;13.40;99.90
